sensor_id;sensor_type;location;lat;lon;timestamp;P1;durP1;ratioP1;P2;durP2;ratioP2
36355;SDS011;22384;54.302;18.596;2022-12-17T00:02:28;74.47;;;29.30;;
36355;SDS011;22384;54.302;18.596;2022-12-17T00:05:13;69.53;;;24.70;;
36355;SDS011;22384;54.302;18.596;2022-12-17T00:08:05;68.40;;;25.27;;
36355;SDS011;22384;54.302;18.596;2022-12-17T00:16:29;54.53;;;23.83;;
36355;SDS011;22384;54.302;18.596;2022-12-17T00:19:15;50.20;;;20.55;;
36355;SDS011;22384;54.302;18.596;2022-12-17T00:22:00;52.90;;;20.98;;
36355;SDS011;22384;54.302;18.596;2022-12-17T00:24:45;46.42;;;19.17;;
36355;SDS011;22384;54.302;18.596;2022-12-17T00:27:30;48.83;;;20.48;;
36355;SDS011;22384;54.302;18.596;2022-12-17T00:30:28;52.35;;;20.85;;
36355;SDS011;22384;54.302;18.596;2022-12-17T00:33:14;47.75;;;20.10;;
36355;SDS011;22384;54.302;18.596;2022-12-17T00:35:58;47.70;;;19.85;;
36355;SDS011;22384;54.302;18.596;2022-12-17T00:38:43;49.50;;;21.38;;
36355;SDS011;22384;54.302;18.596;2022-12-17T00:41:33;45.80;;;19.15;;
36355;SDS011;22384;54.302;18.596;2022-12-17T00:44:18;58.87;;;21.40;;
36355;SDS011;22384;54.302;18.596;2022-12-17T00:47:15;50.25;;;19.98;;
36355;SDS011;22384;54.302;18.596;2022-12-17T00:52:58;50.17;;;20.30;;
36355;SDS011;22384;54.302;18.596;2022-12-17T00:55:44;55.85;;;22.95;;
36355;SDS011;22384;54.302;18.596;2022-12-17T00:58:31;62.92;;;23.23;;
36355;SDS011;22384;54.302;18.596;2022-12-17T01:01:16;59.88;;;23.42;;
36355;SDS011;22384;54.302;18.596;2022-12-17T01:04:10;53.53;;;22.48;;
36355;SDS011;22384;54.302;18.596;2022-12-17T01:06:55;67.78;;;22.50;;
36355;SDS011;22384;54.302;18.596;2022-12-17T01:09:47;59.35;;;24.58;;
36355;SDS011;22384;54.302;18.596;2022-12-17T01:12:41;76.82;;;29.88;;
36355;SDS011;22384;54.302;18.596;2022-12-17T01:15:40;81.57;;;29.35;;
36355;SDS011;22384;54.302;18.596;2022-12-17T01:18:24;79.75;;;29.45;;
36355;SDS011;22384;54.302;18.596;2022-12-17T01:21:09;80.20;;;29.92;;
36355;SDS011;22384;54.302;18.596;2022-12-17T01:23:56;85.47;;;31.55;;
36355;SDS011;22384;54.302;18.596;2022-12-17T01:26:51;73.97;;;24.92;;
36355;SDS011;22384;54.302;18.596;2022-12-17T01:29:35;65.25;;;25.45;;
36355;SDS011;22384;54.302;18.596;2022-12-17T01:32:30;67.95;;;23.63;;
36355;SDS011;22384;54.302;18.596;2022-12-17T01:35:15;61.47;;;22.88;;
36355;SDS011;22384;54.302;18.596;2022-12-17T01:38:02;61.85;;;25.30;;
36355;SDS011;22384;54.302;18.596;2022-12-17T01:40:54;66.10;;;25.88;;
36355;SDS011;22384;54.302;18.596;2022-12-17T01:43:40;66.93;;;24.75;;
36355;SDS011;22384;54.302;18.596;2022-12-17T01:46:26;71.32;;;25.20;;
36355;SDS011;22384;54.302;18.596;2022-12-17T01:49:14;74.88;;;26.42;;
36355;SDS011;22384;54.302;18.596;2022-12-17T01:51:59;66.10;;;24.23;;
36355;SDS011;22384;54.302;18.596;2022-12-17T01:57:35;60.10;;;23.27;;
36355;SDS011;22384;54.302;18.596;2022-12-17T02:00:22;61.10;;;20.35;;
36355;SDS011;22384;54.302;18.596;2022-12-17T02:06:14;49.47;;;18.70;;
36355;SDS011;22384;54.302;18.596;2022-12-17T02:12:11;55.80;;;19.13;;
36355;SDS011;22384;54.302;18.596;2022-12-17T02:17:51;93.40;;;36.75;;
36355;SDS011;22384;54.302;18.596;2022-12-17T02:20:49;58.05;;;19.88;;
36355;SDS011;22384;54.302;18.596;2022-12-17T02:23:51;68.20;;;27.05;;
36355;SDS011;22384;54.302;18.596;2022-12-17T02:26:48;61.58;;;19.73;;
36355;SDS011;22384;54.302;18.596;2022-12-17T02:29:48;57.33;;;19.60;;
36355;SDS011;22384;54.302;18.596;2022-12-17T02:35:27;68.53;;;19.75;;
36355;SDS011;22384;54.302;18.596;2022-12-17T02:43:50;70.65;;;18.67;;
36355;SDS011;22384;54.302;18.596;2022-12-17T02:57:54;73.70;;;23.88;;
36355;SDS011;22384;54.302;18.596;2022-12-17T03:03:29;79.80;;;21.70;;
36355;SDS011;22384;54.302;18.596;2022-12-17T03:09:02;73.22;;;21.20;;
36355;SDS011;22384;54.302;18.596;2022-12-17T03:11:48;92.63;;;22.08;;
36355;SDS011;22384;54.302;18.596;2022-12-17T03:14:32;81.88;;;25.13;;
36355;SDS011;22384;54.302;18.596;2022-12-17T03:20:06;80.55;;;23.25;;
36355;SDS011;22384;54.302;18.596;2022-12-17T03:23:07;67.25;;;23.08;;
36355;SDS011;22384;54.302;18.596;2022-12-17T03:26:02;75.25;;;22.98;;
36355;SDS011;22384;54.302;18.596;2022-12-17T03:28:48;75.75;;;23.08;;
36355;SDS011;22384;54.302;18.596;2022-12-17T03:31:34;80.50;;;24.60;;
36355;SDS011;22384;54.302;18.596;2022-12-17T03:34:19;86.88;;;25.45;;
36355;SDS011;22384;54.302;18.596;2022-12-17T03:37:05;99.05;;;26.30;;
36355;SDS011;22384;54.302;18.596;2022-12-17T03:39:52;89.40;;;22.95;;
36355;SDS011;22384;54.302;18.596;2022-12-17T03:42:37;83.53;;;22.05;;
36355;SDS011;22384;54.302;18.596;2022-12-17T03:45:24;96.18;;;22.42;;
36355;SDS011;22384;54.302;18.596;2022-12-17T03:48:10;97.13;;;22.17;;
36355;SDS011;22384;54.302;18.596;2022-12-17T03:50:57;76.13;;;21.13;;
36355;SDS011;22384;54.302;18.596;2022-12-17T03:53:55;89.90;;;22.63;;
36355;SDS011;22384;54.302;18.596;2022-12-17T03:56:40;80.90;;;22.38;;
36355;SDS011;22384;54.302;18.596;2022-12-17T03:59:24;89.78;;;23.23;;
36355;SDS011;22384;54.302;18.596;2022-12-17T04:02:09;85.65;;;22.38;;
36355;SDS011;22384;54.302;18.596;2022-12-17T04:05:16;108.85;;;27.52;;
36355;SDS011;22384;54.302;18.596;2022-12-17T04:08:01;91.97;;;27.63;;
36355;SDS011;22384;54.302;18.596;2022-12-17T04:10:46;91.80;;;23.17;;
36355;SDS011;22384;54.302;18.596;2022-12-17T04:13:31;84.40;;;23.58;;
36355;SDS011;22384;54.302;18.596;2022-12-17T04:19:03;92.03;;;23.30;;
36355;SDS011;22384;54.302;18.596;2022-12-17T04:21:49;80.50;;;24.33;;
36355;SDS011;22384;54.302;18.596;2022-12-17T04:24:35;99.25;;;25.33;;
36355;SDS011;22384;54.302;18.596;2022-12-17T04:27:21;87.88;;;25.83;;
36355;SDS011;22384;54.302;18.596;2022-12-17T04:30:08;88.45;;;25.58;;
36355;SDS011;22384;54.302;18.596;2022-12-17T04:32:55;94.95;;;24.85;;
36355;SDS011;22384;54.302;18.596;2022-12-17T04:35:40;88.32;;;26.33;;
36355;SDS011;22384;54.302;18.596;2022-12-17T04:38:24;73.80;;;25.27;;
36355;SDS011;22384;54.302;18.596;2022-12-17T04:41:16;87.47;;;25.70;;
36355;SDS011;22384;54.302;18.596;2022-12-17T04:44:11;85.00;;;25.13;;
36355;SDS011;22384;54.302;18.596;2022-12-17T04:46:58;97.95;;;27.90;;
36355;SDS011;22384;54.302;18.596;2022-12-17T04:52:34;88.38;;;26.50;;
36355;SDS011;22384;54.302;18.596;2022-12-17T04:55:23;85.80;;;24.27;;
36355;SDS011;22384;54.302;18.596;2022-12-17T04:58:08;94.78;;;25.92;;
36355;SDS011;22384;54.302;18.596;2022-12-17T05:01:02;90.05;;;23.33;;
36355;SDS011;22384;54.302;18.596;2022-12-17T05:06:37;73.78;;;24.88;;
36355;SDS011;22384;54.302;18.596;2022-12-17T05:09:22;77.97;;;23.25;;
36355;SDS011;22384;54.302;18.596;2022-12-17T05:12:08;70.07;;;23.77;;
36355;SDS011;22384;54.302;18.596;2022-12-17T05:14:53;70.00;;;21.05;;
36355;SDS011;22384;54.302;18.596;2022-12-17T05:17:38;76.85;;;22.35;;
36355;SDS011;22384;54.302;18.596;2022-12-17T05:20:24;73.22;;;21.85;;
36355;SDS011;22384;54.302;18.596;2022-12-17T05:23:09;77.47;;;21.45;;
36355;SDS011;22384;54.302;18.596;2022-12-17T05:28:43;69.15;;;21.38;;
36355;SDS011;22384;54.302;18.596;2022-12-17T05:31:29;71.88;;;21.52;;
36355;SDS011;22384;54.302;18.596;2022-12-17T05:34:13;73.32;;;25.23;;
36355;SDS011;22384;54.302;18.596;2022-12-17T05:36:59;80.45;;;23.15;;
36355;SDS011;22384;54.302;18.596;2022-12-17T05:45:23;70.20;;;21.08;;
36355;SDS011;22384;54.302;18.596;2022-12-17T05:48:08;84.47;;;22.58;;
36355;SDS011;22384;54.302;18.596;2022-12-17T05:53:48;83.80;;;22.50;;
36355;SDS011;22384;54.302;18.596;2022-12-17T05:56:32;74.90;;;20.80;;
36355;SDS011;22384;54.302;18.596;2022-12-17T06:02:07;72.60;;;18.45;;
36355;SDS011;22384;54.302;18.596;2022-12-17T06:04:51;80.13;;;22.42;;
36355;SDS011;22384;54.302;18.596;2022-12-17T06:07:38;87.65;;;23.67;;
36355;SDS011;22384;54.302;18.596;2022-12-17T06:10:32;114.60;;;33.10;;
36355;SDS011;22384;54.302;18.596;2022-12-17T06:13:17;91.68;;;25.50;;
36355;SDS011;22384;54.302;18.596;2022-12-17T06:16:02;75.93;;;22.58;;
36355;SDS011;22384;54.302;18.596;2022-12-17T06:18:48;79.00;;;21.98;;
36355;SDS011;22384;54.302;18.596;2022-12-17T06:21:38;76.28;;;21.92;;
36355;SDS011;22384;54.302;18.596;2022-12-17T06:24:23;73.85;;;24.92;;
36355;SDS011;22384;54.302;18.596;2022-12-17T06:27:10;66.18;;;20.98;;
36355;SDS011;22384;54.302;18.596;2022-12-17T06:29:56;39.75;;;14.38;;
36355;SDS011;22384;54.302;18.596;2022-12-17T06:35:28;56.38;;;18.88;;
36355;SDS011;22384;54.302;18.596;2022-12-17T06:38:14;61.67;;;19.98;;
36355;SDS011;22384;54.302;18.596;2022-12-17T06:41:11;57.10;;;19.20;;
36355;SDS011;22384;54.302;18.596;2022-12-17T06:43:55;53.13;;;19.48;;
36355;SDS011;22384;54.302;18.596;2022-12-17T06:46:41;54.90;;;18.95;;
36355;SDS011;22384;54.302;18.596;2022-12-17T06:49:30;55.70;;;17.33;;
36355;SDS011;22384;54.302;18.596;2022-12-17T06:52:14;53.30;;;17.73;;
36355;SDS011;22384;54.302;18.596;2022-12-17T06:54:59;47.38;;;18.95;;
36355;SDS011;22384;54.302;18.596;2022-12-17T06:57:58;46.75;;;17.67;;
36355;SDS011;22384;54.302;18.596;2022-12-17T07:00:44;40.30;;;16.27;;
36355;SDS011;22384;54.302;18.596;2022-12-17T07:03:29;48.80;;;17.60;;
36355;SDS011;22384;54.302;18.596;2022-12-17T07:06:14;46.30;;;15.93;;
36355;SDS011;22384;54.302;18.596;2022-12-17T07:09:00;38.92;;;15.98;;
36355;SDS011;22384;54.302;18.596;2022-12-17T07:11:45;47.38;;;16.92;;
36355;SDS011;22384;54.302;18.596;2022-12-17T07:14:32;41.83;;;16.08;;
36355;SDS011;22384;54.302;18.596;2022-12-17T07:17:34;36.30;;;13.80;;
36355;SDS011;22384;54.302;18.596;2022-12-17T07:23:21;33.97;;;14.70;;
36355;SDS011;22384;54.302;18.596;2022-12-17T07:29:01;36.05;;;14.70;;
36355;SDS011;22384;54.302;18.596;2022-12-17T07:31:50;31.75;;;13.82;;
36355;SDS011;22384;54.302;18.596;2022-12-17T07:34:34;34.10;;;13.43;;
36355;SDS011;22384;54.302;18.596;2022-12-17T07:37:20;33.35;;;13.43;;
36355;SDS011;22384;54.302;18.596;2022-12-17T07:40:05;26.35;;;11.40;;
36355;SDS011;22384;54.302;18.596;2022-12-17T07:42:51;31.42;;;14.80;;
36355;SDS011;22384;54.302;18.596;2022-12-17T07:45:37;31.85;;;13.38;;
36355;SDS011;22384;54.302;18.596;2022-12-17T07:51:24;30.42;;;12.82;;
36355;SDS011;22384;54.302;18.596;2022-12-17T07:56:58;27.38;;;12.88;;
36355;SDS011;22384;54.302;18.596;2022-12-17T08:02:46;29.67;;;12.60;;
36355;SDS011;22384;54.302;18.596;2022-12-17T08:08:34;26.75;;;11.52;;
36355;SDS011;22384;54.302;18.596;2022-12-17T08:14:22;29.55;;;13.15;;
36355;SDS011;22384;54.302;18.596;2022-12-17T08:17:22;26.88;;;12.43;;
36355;SDS011;22384;54.302;18.596;2022-12-17T08:20:18;40.78;;;16.02;;
36355;SDS011;22384;54.302;18.596;2022-12-17T08:23:03;39.33;;;16.65;;
36355;SDS011;22384;54.302;18.596;2022-12-17T08:25:48;41.17;;;17.23;;
36355;SDS011;22384;54.302;18.596;2022-12-17T08:28:51;31.92;;;14.20;;
36355;SDS011;22384;54.302;18.596;2022-12-17T08:31:37;33.22;;;12.75;;
36355;SDS011;22384;54.302;18.596;2022-12-17T08:37:16;30.33;;;14.38;;
36355;SDS011;22384;54.302;18.596;2022-12-17T08:40:12;30.63;;;12.47;;
36355;SDS011;22384;54.302;18.596;2022-12-17T08:42:59;27.55;;;11.57;;
36355;SDS011;22384;54.302;18.596;2022-12-17T08:45:54;28.48;;;11.13;;
36355;SDS011;22384;54.302;18.596;2022-12-17T08:48:38;24.95;;;12.82;;
36355;SDS011;22384;54.302;18.596;2022-12-17T08:51:37;26.70;;;11.90;;
36355;SDS011;22384;54.302;18.596;2022-12-17T08:54:25;29.23;;;10.85;;
36355;SDS011;22384;54.302;18.596;2022-12-17T08:57:11;24.45;;;11.18;;
36355;SDS011;22384;54.302;18.596;2022-12-17T09:02:47;25.48;;;10.68;;
36355;SDS011;22384;54.302;18.596;2022-12-17T09:11:29;23.77;;;11.15;;
36355;SDS011;22384;54.302;18.596;2022-12-17T09:14:15;26.20;;;11.32;;
36355;SDS011;22384;54.302;18.596;2022-12-17T09:17:05;27.33;;;12.77;;
36355;SDS011;22384;54.302;18.596;2022-12-17T09:22:54;29.20;;;14.88;;
36355;SDS011;22384;54.302;18.596;2022-12-17T09:25:39;32.47;;;14.98;;
36355;SDS011;22384;54.302;18.596;2022-12-17T09:43:54;38.88;;;17.65;;
36355;SDS011;22384;54.302;18.596;2022-12-17T09:46:46;37.78;;;17.27;;
36355;SDS011;22384;54.302;18.596;2022-12-17T09:52:42;39.90;;;17.10;;
36355;SDS011;22384;54.302;18.596;2022-12-17T09:58:30;37.60;;;17.63;;
36355;SDS011;22384;54.302;18.596;2022-12-17T10:01:37;42.65;;;20.48;;
36355;SDS011;22384;54.302;18.596;2022-12-17T10:04:38;40.50;;;18.17;;
36355;SDS011;22384;54.302;18.596;2022-12-17T10:07:34;39.33;;;17.23;;
36355;SDS011;22384;54.302;18.596;2022-12-17T10:10:21;34.17;;;16.92;;
36355;SDS011;22384;54.302;18.596;2022-12-17T10:13:17;38.83;;;16.48;;
36355;SDS011;22384;54.302;18.596;2022-12-17T10:19:07;39.13;;;16.83;;
36355;SDS011;22384;54.302;18.596;2022-12-17T10:25:00;39.08;;;18.42;;
36355;SDS011;22384;54.302;18.596;2022-12-17T10:30:50;41.15;;;18.13;;
36355;SDS011;22384;54.302;18.596;2022-12-17T10:36:23;39.45;;;17.65;;
36355;SDS011;22384;54.302;18.596;2022-12-17T10:39:22;39.60;;;17.02;;
36355;SDS011;22384;54.302;18.596;2022-12-17T10:53:57;44.80;;;19.75;;
36355;SDS011;22384;54.302;18.596;2022-12-17T10:56:52;45.40;;;19.60;;
36355;SDS011;22384;54.302;18.596;2022-12-17T11:02:48;43.97;;;19.75;;
36355;SDS011;22384;54.302;18.596;2022-12-17T11:08:25;55.55;;;19.63;;
36355;SDS011;22384;54.302;18.596;2022-12-17T11:14:13;44.17;;;19.90;;
36355;SDS011;22384;54.302;18.596;2022-12-17T11:17:02;41.55;;;18.85;;
36355;SDS011;22384;54.302;18.596;2022-12-17T11:19:53;41.97;;;19.77;;
36355;SDS011;22384;54.302;18.596;2022-12-17T11:37:20;40.67;;;18.52;;
36355;SDS011;22384;54.302;18.596;2022-12-17T12:01:22;46.13;;;19.80;;
36355;SDS011;22384;54.302;18.596;2022-12-17T12:10:21;42.28;;;19.10;;
36355;SDS011;22384;54.302;18.596;2022-12-17T12:22:05;47.33;;;18.92;;
36355;SDS011;22384;54.302;18.596;2022-12-17T12:36:46;52.13;;;22.45;;
36355;SDS011;22384;54.302;18.596;2022-12-17T12:42:38;49.85;;;22.35;;
36355;SDS011;22384;54.302;18.596;2022-12-17T13:03:07;55.00;;;23.88;;
36355;SDS011;22384;54.302;18.596;2022-12-17T13:05:52;57.72;;;24.25;;
36355;SDS011;22384;54.302;18.596;2022-12-17T13:08:27;66.47;;;24.98;;
36355;SDS011;22384;54.302;18.596;2022-12-17T13:11:28;60.20;;;24.85;;
36355;SDS011;22384;54.302;18.596;2022-12-17T13:13:49;64.45;;;24.70;;
36355;SDS011;22384;54.302;18.596;2022-12-17T13:19:30;54.50;;;22.70;;
36355;SDS011;22384;54.302;18.596;2022-12-17T13:24:48;62.67;;;23.13;;
36355;SDS011;22384;54.302;18.596;2022-12-17T13:51:33;66.30;;;26.80;;
36355;SDS011;22384;54.302;18.596;2022-12-17T13:54:03;65.88;;;28.08;;
36355;SDS011;22384;54.302;18.596;2022-12-17T13:56:31;68.82;;;26.92;;
36355;SDS011;22384;54.302;18.596;2022-12-17T13:59:17;66.18;;;26.83;;
36355;SDS011;22384;54.302;18.596;2022-12-17T14:04:49;66.40;;;27.13;;
36355;SDS011;22384;54.302;18.596;2022-12-17T14:07:27;68.78;;;28.10;;
36355;SDS011;22384;54.302;18.596;2022-12-17T14:09:53;75.30;;;28.27;;
36355;SDS011;22384;54.302;18.596;2022-12-17T14:12:21;67.43;;;27.17;;
36355;SDS011;22384;54.302;18.596;2022-12-17T14:17:20;71.85;;;27.30;;
36355;SDS011;22384;54.302;18.596;2022-12-17T14:19:50;68.93;;;26.27;;
36355;SDS011;22384;54.302;18.596;2022-12-17T14:24:44;62.65;;;25.70;;
36355;SDS011;22384;54.302;18.596;2022-12-17T14:27:20;57.58;;;22.83;;
36355;SDS011;22384;54.302;18.596;2022-12-17T14:29:47;70.28;;;27.83;;
36355;SDS011;22384;54.302;18.596;2022-12-17T14:32:21;63.75;;;25.00;;
36355;SDS011;22384;54.302;18.596;2022-12-17T14:34:48;62.00;;;27.83;;
36355;SDS011;22384;54.302;18.596;2022-12-17T14:37:17;56.95;;;23.77;;
36355;SDS011;22384;54.302;18.596;2022-12-17T14:39:45;63.42;;;22.98;;
36355;SDS011;22384;54.302;18.596;2022-12-17T14:42:15;66.20;;;25.27;;
36355;SDS011;22384;54.302;18.596;2022-12-17T14:44:51;60.17;;;23.15;;
36355;SDS011;22384;54.302;18.596;2022-12-17T14:47:20;56.80;;;24.35;;
36355;SDS011;22384;54.302;18.596;2022-12-17T14:52:35;61.55;;;24.02;;
36355;SDS011;22384;54.302;18.596;2022-12-17T14:55:20;57.50;;;23.33;;
36355;SDS011;22384;54.302;18.596;2022-12-17T14:57:46;56.63;;;23.13;;
36355;SDS011;22384;54.302;18.596;2022-12-17T15:00:12;58.42;;;24.35;;
36355;SDS011;22384;54.302;18.596;2022-12-17T15:36:59;52.08;;;22.00;;
36355;SDS011;22384;54.302;18.596;2022-12-17T15:39:35;54.75;;;22.48;;
36355;SDS011;22384;54.302;18.596;2022-12-17T15:42:14;53.10;;;20.27;;
36355;SDS011;22384;54.302;18.596;2022-12-17T15:45:00;50.65;;;19.00;;
36355;SDS011;22384;54.302;18.596;2022-12-17T15:47:40;59.50;;;22.25;;
36355;SDS011;22384;54.302;18.596;2022-12-17T15:50:08;60.20;;;21.95;;
36355;SDS011;22384;54.302;18.596;2022-12-17T15:52:35;79.85;;;26.88;;
36355;SDS011;22384;54.302;18.596;2022-12-17T15:57:37;46.50;;;19.23;;
36355;SDS011;22384;54.302;18.596;2022-12-17T16:00:04;48.53;;;20.70;;
36355;SDS011;22384;54.302;18.596;2022-12-17T16:02:32;46.72;;;19.67;;
36355;SDS011;22384;54.302;18.596;2022-12-17T16:04:59;48.83;;;20.27;;
36355;SDS011;22384;54.302;18.596;2022-12-17T16:07:26;57.35;;;21.15;;
36355;SDS011;22384;54.302;18.596;2022-12-17T16:09:55;51.90;;;19.58;;
36355;SDS011;22384;54.302;18.596;2022-12-17T16:12:22;44.50;;;19.38;;
36355;SDS011;22384;54.302;18.596;2022-12-17T16:14:49;49.08;;;21.95;;
36355;SDS011;22384;54.302;18.596;2022-12-17T16:17:17;49.42;;;20.90;;
36355;SDS011;22384;54.302;18.596;2022-12-17T16:19:45;50.60;;;19.95;;
36355;SDS011;22384;54.302;18.596;2022-12-17T16:22:12;56.00;;;20.92;;
36355;SDS011;22384;54.302;18.596;2022-12-17T16:24:52;47.47;;;21.05;;
36355;SDS011;22384;54.302;18.596;2022-12-17T16:27:19;49.28;;;20.27;;
36355;SDS011;22384;54.302;18.596;2022-12-17T16:29:46;52.08;;;20.05;;
36355;SDS011;22384;54.302;18.596;2022-12-17T16:32:14;49.13;;;19.67;;
36355;SDS011;22384;54.302;18.596;2022-12-17T16:34:41;43.95;;;19.67;;
36355;SDS011;22384;54.302;18.596;2022-12-17T16:37:07;51.08;;;21.40;;
36355;SDS011;22384;54.302;18.596;2022-12-17T16:51:51;44.17;;;19.17;;
36355;SDS011;22384;54.302;18.596;2022-12-17T16:54:20;46.33;;;17.85;;
36355;SDS011;22384;54.302;18.596;2022-12-17T16:56:50;42.95;;;18.05;;
36355;SDS011;22384;54.302;18.596;2022-12-17T17:01:53;42.58;;;17.90;;
36355;SDS011;22384;54.302;18.596;2022-12-17T17:04:22;47.88;;;18.80;;
36355;SDS011;22384;54.302;18.596;2022-12-17T17:07:04;41.30;;;17.13;;
36355;SDS011;22384;54.302;18.596;2022-12-17T17:09:37;38.33;;;14.82;;
36355;SDS011;22384;54.302;18.596;2022-12-17T17:12:10;37.92;;;16.38;;
36355;SDS011;22384;54.302;18.596;2022-12-17T17:14:38;40.95;;;16.63;;
36355;SDS011;22384;54.302;18.596;2022-12-17T17:17:04;43.47;;;18.35;;
36355;SDS011;22384;54.302;18.596;2022-12-17T17:19:32;43.95;;;18.02;;
36355;SDS011;22384;54.302;18.596;2022-12-17T17:21:59;41.10;;;16.48;;
36355;SDS011;22384;54.302;18.596;2022-12-17T17:24:25;48.95;;;18.42;;
36355;SDS011;22384;54.302;18.596;2022-12-17T17:26:52;40.78;;;18.00;;
36355;SDS011;22384;54.302;18.596;2022-12-17T17:29:18;43.78;;;17.42;;
36355;SDS011;22384;54.302;18.596;2022-12-17T17:31:45;45.80;;;20.10;;
36355;SDS011;22384;54.302;18.596;2022-12-17T17:34:18;49.80;;;19.00;;
36355;SDS011;22384;54.302;18.596;2022-12-17T17:36:44;48.63;;;19.88;;
36355;SDS011;22384;54.302;18.596;2022-12-17T17:39:16;52.08;;;20.88;;
36355;SDS011;22384;54.302;18.596;2022-12-17T17:41:42;59.42;;;24.55;;
36355;SDS011;22384;54.302;18.596;2022-12-17T17:44:12;48.90;;;21.48;;
36355;SDS011;22384;54.302;18.596;2022-12-17T17:46:41;59.10;;;21.08;;
36355;SDS011;22384;54.302;18.596;2022-12-17T17:49:08;46.03;;;18.83;;
36355;SDS011;22384;54.302;18.596;2022-12-17T17:51:38;52.25;;;20.35;;
36355;SDS011;22384;54.302;18.596;2022-12-17T17:54:11;52.22;;;21.27;;
36355;SDS011;22384;54.302;18.596;2022-12-17T17:56:38;72.22;;;25.38;;
36355;SDS011;22384;54.302;18.596;2022-12-17T17:59:05;53.88;;;21.58;;
36355;SDS011;22384;54.302;18.596;2022-12-17T18:01:35;47.90;;;20.00;;
36355;SDS011;22384;54.302;18.596;2022-12-17T18:04:05;45.17;;;18.52;;
36355;SDS011;22384;54.302;18.596;2022-12-17T18:06:35;43.03;;;16.25;;
36355;SDS011;22384;54.302;18.596;2022-12-17T18:09:41;43.17;;;18.27;;
36355;SDS011;22384;54.302;18.596;2022-12-17T18:12:17;43.22;;;18.00;;
36355;SDS011;22384;54.302;18.596;2022-12-17T18:15:02;41.05;;;16.83;;
36355;SDS011;22384;54.302;18.596;2022-12-17T18:17:30;49.28;;;19.23;;
36355;SDS011;22384;54.302;18.596;2022-12-17T18:19:56;47.42;;;18.48;;
36355;SDS011;22384;54.302;18.596;2022-12-17T18:22:23;45.13;;;19.25;;
36355;SDS011;22384;54.302;18.596;2022-12-17T18:27:54;48.45;;;19.10;;
36355;SDS011;22384;54.302;18.596;2022-12-17T18:30:28;45.47;;;19.20;;
36355;SDS011;22384;54.302;18.596;2022-12-17T18:32:54;52.03;;;19.92;;
36355;SDS011;22384;54.302;18.596;2022-12-17T18:35:20;45.58;;;18.50;;
36355;SDS011;22384;54.302;18.596;2022-12-17T18:37:46;54.33;;;19.88;;
36355;SDS011;22384;54.302;18.596;2022-12-17T18:40:13;49.22;;;20.48;;
36355;SDS011;22384;54.302;18.596;2022-12-17T18:42:46;52.20;;;21.42;;
36355;SDS011;22384;54.302;18.596;2022-12-17T18:45:30;50.72;;;21.45;;
36355;SDS011;22384;54.302;18.596;2022-12-17T18:48:07;50.75;;;20.38;;
36355;SDS011;22384;54.302;18.596;2022-12-17T18:50:33;50.00;;;19.27;;
36355;SDS011;22384;54.302;18.596;2022-12-17T18:53:00;51.63;;;21.42;;
36355;SDS011;22384;54.302;18.596;2022-12-17T18:55:28;48.65;;;19.58;;
36355;SDS011;22384;54.302;18.596;2022-12-17T18:57:56;57.25;;;22.63;;
36355;SDS011;22384;54.302;18.596;2022-12-17T19:00:23;58.05;;;22.70;;
36355;SDS011;22384;54.302;18.596;2022-12-17T19:02:55;56.33;;;22.00;;
36355;SDS011;22384;54.302;18.596;2022-12-17T19:05:22;63.63;;;22.25;;
36355;SDS011;22384;54.302;18.596;2022-12-17T19:07:48;59.15;;;23.30;;
36355;SDS011;22384;54.302;18.596;2022-12-17T19:10:21;59.83;;;24.08;;
36355;SDS011;22384;54.302;18.596;2022-12-17T19:12:48;69.38;;;22.20;;
36355;SDS011;22384;54.302;18.596;2022-12-17T19:15:20;59.58;;;22.60;;
36355;SDS011;22384;54.302;18.596;2022-12-17T19:17:53;62.38;;;23.67;;
36355;SDS011;22384;54.302;18.596;2022-12-17T19:20:20;75.75;;;25.17;;
36355;SDS011;22384;54.302;18.596;2022-12-17T19:22:48;60.25;;;26.05;;
36355;SDS011;22384;54.302;18.596;2022-12-17T19:25:17;58.05;;;23.27;;
36355;SDS011;22384;54.302;18.596;2022-12-17T19:27:44;57.08;;;23.20;;
36355;SDS011;22384;54.302;18.596;2022-12-17T19:30:16;54.80;;;21.88;;
36355;SDS011;22384;54.302;18.596;2022-12-17T19:32:44;53.28;;;22.00;;
36355;SDS011;22384;54.302;18.596;2022-12-17T19:35:11;59.97;;;23.05;;
36355;SDS011;22384;54.302;18.596;2022-12-17T19:37:38;60.67;;;23.90;;
36355;SDS011;22384;54.302;18.596;2022-12-17T19:40:12;58.35;;;24.88;;
36355;SDS011;22384;54.302;18.596;2022-12-17T19:42:41;63.97;;;25.00;;
36355;SDS011;22384;54.302;18.596;2022-12-17T19:45:07;65.10;;;25.45;;
36355;SDS011;22384;54.302;18.596;2022-12-17T19:47:33;73.35;;;28.23;;
36355;SDS011;22384;54.302;18.596;2022-12-17T19:49:59;81.47;;;27.35;;
36355;SDS011;22384;54.302;18.596;2022-12-17T19:52:26;64.72;;;27.42;;
36355;SDS011;22384;54.302;18.596;2022-12-17T19:54:52;59.80;;;27.05;;
36355;SDS011;22384;54.302;18.596;2022-12-17T19:57:26;67.28;;;28.52;;
36355;SDS011;22384;54.302;18.596;2022-12-17T19:59:52;74.68;;;29.42;;
36355;SDS011;22384;54.302;18.596;2022-12-17T20:02:20;81.07;;;31.02;;
36355;SDS011;22384;54.302;18.596;2022-12-17T20:04:47;67.85;;;28.88;;
36355;SDS011;22384;54.302;18.596;2022-12-17T20:07:13;72.03;;;28.27;;
36355;SDS011;22384;54.302;18.596;2022-12-17T20:09:39;67.18;;;28.25;;
36355;SDS011;22384;54.302;18.596;2022-12-17T20:12:14;70.72;;;27.45;;
36355;SDS011;22384;54.302;18.596;2022-12-17T20:14:40;73.75;;;28.05;;
36355;SDS011;22384;54.302;18.596;2022-12-17T20:17:12;72.75;;;27.45;;
36355;SDS011;22384;54.302;18.596;2022-12-17T20:19:38;80.00;;;30.13;;
36355;SDS011;22384;54.302;18.596;2022-12-17T20:22:06;71.15;;;27.85;;
36355;SDS011;22384;54.302;18.596;2022-12-17T20:24:32;70.50;;;28.70;;
36355;SDS011;22384;54.302;18.596;2022-12-17T20:26:58;76.70;;;28.65;;
36355;SDS011;22384;54.302;18.596;2022-12-17T20:29:28;67.82;;;26.70;;
36355;SDS011;22384;54.302;18.596;2022-12-17T20:31:55;75.50;;;28.45;;
36355;SDS011;22384;54.302;18.596;2022-12-17T20:34:22;66.55;;;27.27;;
36355;SDS011;22384;54.302;18.596;2022-12-17T20:36:49;65.22;;;26.63;;
36355;SDS011;22384;54.302;18.596;2022-12-17T20:39:17;75.55;;;28.20;;
36355;SDS011;22384;54.302;18.596;2022-12-17T20:41:43;64.32;;;25.50;;
36355;SDS011;22384;54.302;18.596;2022-12-17T20:44:11;71.53;;;28.02;;
36355;SDS011;22384;54.302;18.596;2022-12-17T20:46:38;62.67;;;26.27;;
36355;SDS011;22384;54.302;18.596;2022-12-17T20:49:05;65.60;;;26.67;;
36355;SDS011;22384;54.302;18.596;2022-12-17T20:51:40;72.10;;;27.10;;
36355;SDS011;22384;54.302;18.596;2022-12-17T20:54:08;76.13;;;27.17;;
36355;SDS011;22384;54.302;18.596;2022-12-17T20:56:34;70.32;;;28.70;;
36355;SDS011;22384;54.302;18.596;2022-12-17T20:59:02;67.20;;;26.40;;
36355;SDS011;22384;54.302;18.596;2022-12-17T21:01:29;76.28;;;28.92;;
36355;SDS011;22384;54.302;18.596;2022-12-17T21:03:56;67.57;;;27.92;;
36355;SDS011;22384;54.302;18.596;2022-12-17T21:06:24;67.85;;;26.95;;